Rogers Spring, Nevada Weather observations

Data are for 10 minute period ending at time listed.
 Day   Time   Solar   Ave.   Ave.  Ave.  Vector  Max.   Baro.   Total    
  of    of     Rad.   Air    Rel.  Wind   Wind   Wind  Press.  Precip.   
Year   Day            Temp.  Hum.  Speed  Dir.   Gust                    
2016   (PST)  Kw/m2    F      %     mph   deg.    mph    mb.     in.     
-------------------------------------------------------------------------
 146   10:50   0.80   73.7    25    4.1   185     8.3   933.2    0.00 
 146   11:00   0.80   74.1    25    4.0   252    10.4   933.1    0.00 
 146   11:10   0.81   75.1    23    4.5   188    12.3   932.9    0.00 
 146   11:20   0.60   75.0    22    4.5   168     9.6   932.8    0.00 
 146   11:30   0.76   75.9    22    3.9   198     9.2   932.6    0.00 
 146   11:40   0.73   74.9    22    3.6   195     8.6   932.5    0.00 
 146   11:50   0.74   75.8    21    5.3   186    10.4   932.4    0.00 
 146   12:00   0.80   75.6    20    3.2   258     7.0   932.3    0.00 
 146   12:10   0.83   77.3    20    5.5   159    10.2   932.2    0.00 
 146   12:20   0.83   77.3    19    3.8   189     9.9   932.1    0.00 
 146   12:30   0.85   76.8    20    2.7    11     6.5   932.0    0.00 
 146   12:40   0.78   77.9    18    4.7   186    10.8   931.8    0.00 
 146   12:50   0.77   78.1    20    3.4   298     9.8   931.7    0.00 
 146   13:00   0.71   78.2    20    5.8   127    11.3   931.5    0.00 
 146   13:10   0.77   77.8    20    3.6   156    11.3   931.3    0.00 
 146   13:20   0.77   77.8    20    5.8   158    10.4   931.2    0.00 
 146   13:30   0.76   77.6    20    4.1   156    11.2   931.1    0.00 
 146   13:40   0.75   78.3    19    4.3   200     8.9   931.0    0.00 
 146   13:50   0.74   79.3    19    5.2   198    15.8   930.9    0.00 
 146   14:00   0.73   79.2    19    3.9   165     8.7   930.8    0.00 
 146   14:10   0.73   79.4    19    3.1   269     6.6   930.5    0.00 
 146   14:20   0.69   79.0    19    5.9   218    14.0   930.4    0.00 
 146   14:30   0.72   80.0    19    5.1   192    13.6   930.3    0.00 
 146   14:40   0.73   79.4    19    7.5   211    13.9   930.2    0.00 
 146   14:50   0.71   80.4    18    3.0   167     6.6   930.1    0.00 
 146   15:00   0.70   79.4    18    2.8   193    12.7   930.0    0.00 
 146   15:10   0.76   81.2    18    6.3   200    13.7   930.0    0.00 
 146   15:20   0.68   80.6    18    5.4   177    11.2   930.0    0.00 
 146   15:30   0.44   79.3    18    4.2   141    10.6   930.0    0.00 
 146   15:40   0.21   76.4    21    4.1    27     9.6   930.0    0.00 
 146   15:50   0.15   75.7    21    3.1    23     5.8   930.1    0.00 
 146   16:00   0.14   75.6    20    3.0    80     7.4   930.3    0.00 
 146   16:10   0.11   75.1    20    4.9    43    12.5   930.3    0.00 
 146   16:20   0.09   74.1    20    5.2    53    14.8   930.4    0.00 
 146   16:30   0.10   74.0    19    6.2   142    17.5   930.7    0.00 
 146   16:40   0.13   74.2    19    8.9   186    19.5   930.7    0.00 
 146   16:50   0.14   73.5    19    8.3   240    17.0   930.8    0.00 
 146   17:00   0.12   73.8    19    5.8   228    12.8   930.9    0.00 
 146   17:10   0.11   73.9    21    4.1   281     8.4   931.1    0.00 
 146   17:20   0.09   72.3    24    3.4   114     6.8   931.5    0.00 
 146   17:30   0.08   71.7    24    7.4   132    14.0   931.6    0.00 
 146   17:40   0.07   71.2    25    8.5   151    14.2   931.7    0.00 
 146   17:50   0.06   70.9    26    6.1   140    11.9   932.0    0.00 
 146   18:00   0.04   69.9    27    8.1   160    15.5   932.0    0.00 
 146   18:10   0.03   69.2    28    5.3   166    11.0   932.2    0.00 
 146   18:20   0.03   68.6    29    5.0   180    10.0   932.4    0.00 
 146   18:30   0.01   68.0    29    4.2   167    11.8   932.6    0.00 
 146   18:40   0.01   67.6    30    3.9   260     8.7   932.7    0.00 
 146   18:50   0.00   65.7    33    3.7   290     6.1   932.8    0.00 
 146   19:00   0.00   64.1    35    3.6   262     6.4   932.8    0.00 
 146   19:10   0.00   64.9    33    2.8   269     5.0   932.8    0.00 
 146   19:20   0.00   64.2    34    0.8   257     2.3   932.6    0.00 
 146   19:30   0.00   61.1    40    0.0     0     0.0   932.5    0.00 
 146   19:40   0.00   58.7    45    0.0     0     0.0   932.4    0.00 
 146   19:50   0.00   58.2    45    0.0     0     0.0   932.3    0.00 
 146   20:00   0.00   56.0    50    0.3    37     1.3   932.3    0.00 
 146   20:10   0.00   54.8    52    0.6   258     3.1   932.3    0.00 
 146   20:20   0.00   54.3    54    0.0     0     0.0   932.2    0.00 
 146   20:30   0.00   53.6    54    0.5   144     1.5   932.2    0.00 
 146   20:40   0.00   52.4    55    0.9   230     3.4   932.2    0.00 
 146   20:50   0.00   50.4    59    0.2   228     1.1   932.3    0.00 
 146   21:00   0.00   51.4    57    0.1   239     1.2   932.4    0.00 
 146   21:10   0.00   53.7    53    1.4    13     3.0   932.4    0.00 
 146   21:20   0.00   54.9    50    1.3   345     2.6   932.4    0.00 
 146   21:30   0.00   54.8    50    0.2   345     1.6   932.4    0.00 
 146   21:40   0.00   55.5    49    0.9    28     1.7   932.2    0.00 
 146   21:50   0.00   55.1    50    0.2    12     1.1   932.2    0.00 
 146   22:00   0.00   54.0    54    1.3   349     2.3   932.2    0.00 
 146   22:10   0.00   54.3    55    2.4   329     5.2   932.1    0.00 
 146   22:20   0.00   55.2    55    3.8   317     6.1   932.0    0.00 
 146   22:30   0.00   56.1    54    3.5   330     5.3   931.9    0.00 
 146   22:40   0.00   56.5    52    2.6   352     3.8   931.9    0.00 
 146   22:50   0.00   56.3    52    3.0   342     4.3   932.0    0.00 
 146   23:00   0.00   55.7    53    3.1   333     5.3   932.0    0.00 
 146   23:10   0.00   56.1    53    3.3   340     5.6   932.1    0.00 
 146   23:20   0.00   56.6    52    2.8    13     6.6   932.1    0.00 
 146   23:30   0.00   55.1    53    0.6    34     2.1   932.1    0.00 
 146   23:40   0.00   54.7    54    2.0    47     5.0   932.1    0.00 
 146   23:50   0.00   55.2    52    1.4   309     3.7   931.9    0.00 
 147    0:00   0.00   55.2    54    3.5   316     6.1   931.9    0.00 
 147    0:10   0.00   57.0    52    7.1   317    13.4   931.9    0.00 
 147    0:20   0.00   59.1    50   10.0   319    18.3   931.8    0.00 
 147    0:30   0.00   59.6    50    9.2   326    16.1   931.8    0.00 
 147    0:40   0.00   59.4    51    8.6   320    13.2   931.8    0.00 
 147    0:50   0.00   59.1    52    8.7   314    14.3   931.8    0.00 
 147    1:00   0.00   58.8    52    7.1   309    11.4   931.8    0.00 
 147    1:10   0.00   58.1    53    5.6   313     9.6   931.8    0.00 
 147    1:20   0.00   57.3    55    5.3   315     8.5   931.8    0.00 
 147    1:30   0.00   57.7    54    6.8   319    12.3   931.8    0.00 
 147    1:40   0.00   58.2    52    5.9   323    10.9   931.8    0.00 
 147    1:50   0.00   57.6    53    5.0   346     8.8   931.8    0.00 
 147    2:00   0.00   56.7    54    4.5   329     7.9   931.8    0.00 
 147    2:10   0.00   55.2    56    3.6   318     6.2   931.8    0.00 
 147    2:20   0.00   54.2    58    2.9   322     5.6   931.8    0.00 
 147    2:30   0.00   54.0    58    3.6   330     6.8   931.8    0.00 
 147    2:40   0.00   53.3    58    2.9   303     5.6   931.8    0.00 
 147    2:50   0.00   53.0    59    4.4   327     9.0   931.6    0.00 
 147    3:00   0.00   53.4    58    5.2   324     8.3   931.7    0.00 
 147    3:10   0.00   53.2    58    4.0   325     8.0   931.8    0.00 
 147    3:20   0.00   53.9    58    3.9   330     7.1   931.8    0.00 
 147    3:30   0.00   53.5    57    2.6   357     6.0   931.9    0.00 
 147    3:40   0.00   52.7    58    0.4     3     1.8   931.9    0.00 
 147    3:50   0.00   51.3    59    3.1   325     6.1   932.0    0.00 
 147    4:00   0.00   50.3    62    3.9   328     5.9   932.0    0.00 
 147    4:10   0.00   51.3    60    3.9   329     7.2   932.2    0.00 
 147    4:20   0.00   51.1    61    3.6   349     6.1   932.3    0.00 
 147    4:30   0.00   50.6    62    2.5     8     4.2   932.3    0.00 
 147    4:40   0.00   50.3    62    1.8    59     2.8   932.4    0.00 
 147    4:50   0.00   50.8    62    2.0    39     3.2   932.5    0.00 
 147    5:00   0.00   52.3    59    1.4    36     2.9   932.7    0.00 
 147    5:10   0.00   53.4    57    2.7    50     5.3   932.8    0.00 
 147    5:20   0.00   55.4    55    3.3   354     5.9   932.9    0.00 
 147    5:30   0.00   55.8    56    2.4    14     5.3   932.9    0.00 
 147    5:40   0.00   57.0    52    2.9    19     6.2   933.1    0.00 
 147    5:50   0.00   58.2    50    2.5    30     4.0   933.2    0.00 
 147    6:00   0.00   59.0    47    2.6    57     3.9   933.3    0.00 
 147    6:10   0.10   59.5    46    2.7    37     4.5   933.4    0.00 
 147    6:20   0.22   60.8    45    3.1    37     5.8   933.6    0.00 
 147    6:30   0.25   62.6    44    3.2    28     6.1   933.6    0.00 
 147    6:40   0.28   64.1    42    2.2   352     7.3   933.7    0.00 
 147    6:50   0.30   65.4    42    4.2   313     6.9   933.7    0.00 
 147    7:00   0.32   65.9    40    5.4   296     8.6   933.8    0.00 
 147    7:10   0.36   66.1    40    5.8   323     9.4   933.9    0.00 
 147    7:20   0.39   66.8    39    4.9   324     8.3   933.9    0.00 
 147    7:30   0.41   67.8    37    4.4   326     9.9   933.9    0.00 
 147    7:40   0.44   68.6    36    5.0   336     9.9   933.9    0.00 
 147    7:50   0.47   69.2    34    6.8   327    11.5   934.0    0.00 
 147    8:00   0.46   69.8    34    6.8   326    11.5   934.1    0.00 
 147    8:10   0.40   70.1    33    6.3   340    10.3   934.1    0.00 
 147    8:20   0.41   70.5    32    6.1   347    12.1   934.0    0.00 
 147    8:30   0.51   70.8    31    3.8   325     8.6   934.0    0.00 
 147    8:40   0.55   71.9    30    4.3   341     8.6   933.9    0.00 
 147    8:50   0.57   72.2    30    3.9   326     8.6   933.9    0.00 
 147    9:00   0.62   72.8    29    2.4   352     7.7   933.8    0.00 
 147    9:10   0.65   73.5    29    4.2   342     7.1   933.8    0.00 
 147    9:20   0.67   73.8    28    4.1   289    11.7   933.8    0.00 
 147    9:30   0.69   74.2    27    4.7   290     9.8   933.7    0.00 
 147    9:40   0.70   74.6    27    4.0   312     8.8   933.7    0.00 
 147    9:50   0.72   75.7    27    3.8   328     6.6   933.7    0.00 
 147   10:00   0.73   75.9    26    5.6   311    14.7   933.6    0.00 
 147   10:10   0.75   75.7    25    4.0   317     8.8   933.5    0.00 
 147   10:20   0.77   76.2    24    1.9    15     5.3   933.4    0.00 
 147   10:30   0.78   77.4    24    4.3   337     9.7   933.3    0.00 
 147   10:40   0.82   77.6    24    3.9   313    10.1   933.2    0.00 

Return to Rogers Spring graphs page.


Western Regional Climate Center,wrcc@dri.edu